Time;durP1;ratioP1;P1;durP2;ratioP2;P2;SDS_P1;SDS_P2;PMS_P1;PMS_P2;Temp;Humidity;BMP_temperature;BMP_pressure;BME280_temperature;BME280_humidity;BME280_pressure;Samples;Min_cycle;Max_cycle;Signal;HPM_P1;HPM_P2
2023/03/16 00:00:51;;;;;;;11.70;9.27;;;1.60;99.90;;;;;;5091818;28;20652;-57
2023/03/16 00:03:19;;;;;;;12.80;10.10;;;1.60;99.90;;;;;;5091825;28;20212;-55
2023/03/16 00:05:46;;;;;;;12.67;9.63;;;1.50;99.90;;;;;;5092012;28;20692;-55
2023/03/16 00:08:13;;;;;;;14.20;9.30;;;1.50;99.90;;;;;;5091934;28;20254;-55
2023/03/16 00:10:45;;;;;;;12.20;9.33;;;1.40;99.90;;;;;;5092629;28;20224;-56
2023/03/16 00:13:12;;;;;;;14.07;9.60;;;1.40;99.90;;;;;;5096001;28;20199;-55
2023/03/16 00:15:39;;;;;;;11.07;8.77;;;1.30;99.90;;;;;;5095579;28;20235;-56
2023/03/16 00:18:07;;;;;;;11.73;9.00;;;1.40;99.90;;;;;;5095343;28;20208;-55
2023/03/16 00:20:34;;;;;;;11.27;9.10;;;1.40;99.90;;;;;;5095477;28;20634;-55
2023/03/16 00:23:01;;;;;;;13.93;9.70;;;1.40;99.90;;;;;;5095240;28;20614;-55
2023/03/16 00:25:28;;;;;;;11.70;9.17;;;1.50;99.90;;;;;;5095223;28;20324;-56
2023/03/16 00:27:55;;;;;;;12.60;9.80;;;1.50;99.90;;;;;;5095036;28;20200;-55
2023/03/16 00:30:22;;;;;;;12.57;9.63;;;1.50;99.90;;;;;;5095211;28;20228;-56
2023/03/16 00:32:49;;;;;;;13.20;9.90;;;1.50;99.90;;;;;;5095337;28;20208;-56
2023/03/16 00:35:17;;;;;;;12.80;10.10;;;1.50;99.90;;;;;;5094944;28;20231;-55
2023/03/16 00:37:44;;;;;;;12.97;9.73;;;1.50;99.90;;;;;;5094632;28;20578;-54
2023/03/16 00:40:12;;;;;;;11.37;9.30;;;1.50;99.90;;;;;;5094738;28;20247;-55
2023/03/16 00:42:39;;;;;;;12.73;9.30;;;1.50;99.90;;;;;;5095066;28;20204;-55
2023/03/16 00:45:07;;;;;;;12.10;9.30;;;1.50;99.90;;;;;;5094870;28;20239;-55
2023/03/16 00:47:34;;;;;;;13.67;9.93;;;1.40;99.90;;;;;;5094457;28;20716;-55
2023/03/16 00:50:02;;;;;;;15.07;9.73;;;1.40;99.90;;;;;;5095168;28;20596;-55
2023/03/16 00:52:30;;;;;;;13.40;10.17;;;1.30;99.90;;;;;;5094919;28;20196;-54
2023/03/16 00:54:57;;;;;;;12.97;9.57;;;1.30;99.90;;;;;;5095004;28;20224;-55
2023/03/16 00:57:26;;;;;;;14.70;10.20;;;1.30;99.90;;;;;;5094637;28;20204;-54
2023/03/16 00:59:53;;;;;;;13.07;9.80;;;1.20;99.90;;;;;;5094505;28;20274;-53
2023/03/16 01:02:22;;;;;;;13.70;9.87;;;1.20;99.90;;;;;;5094497;28;20568;-54
2023/03/16 01:04:49;;;;;;;13.23;9.97;;;1.20;99.90;;;;;;5094366;28;20207;-54
2023/03/16 01:07:16;;;;;;;14.40;9.90;;;1.10;99.90;;;;;;5094105;28;20204;-54
2023/03/16 01:09:44;;;;;;;13.00;10.60;;;1.10;99.90;;;;;;5094466;28;20303;-54
2023/03/16 01:12:13;;;;;;;13.63;10.23;;;1.10;99.90;;;;;;5094490;28;20215;-54
2023/03/16 01:14:40;;;;;;;12.43;9.03;;;1.10;99.90;;;;;;5094470;28;20310;-54
2023/03/16 01:17:09;;;;;;;15.43;10.00;;;1.00;99.90;;;;;;5094080;28;20211;-54
2023/03/16 01:19:37;;;;;;;11.57;9.07;;;1.00;99.90;;;;;;5093812;28;20703;-54
2023/03/16 01:22:05;;;;;;;14.13;9.57;;;0.90;99.90;;;;;;5093864;28;20204;-55
2023/03/16 01:24:33;;;;;;;13.10;9.40;;;1.00;99.90;;;;;;5094104;28;20683;-55
2023/03/16 01:27:01;;;;;;;12.37;9.60;;;0.90;99.90;;;;;;5094018;28;20572;-55
2023/03/16 01:29:29;;;;;;;13.40;9.80;;;0.90;99.90;;;;;;5094135;28;20234;-54
2023/03/16 01:31:56;;;;;;;13.13;9.93;;;0.90;99.90;;;;;;5093786;28;20672;-54
2023/03/16 01:34:23;;;;;;;13.33;9.93;;;1.00;99.90;;;;;;5093692;28;20239;-54
2023/03/16 01:36:51;;;;;;;14.10;9.63;;;1.00;99.90;;;;;;5093877;28;20668;-54
2023/03/16 01:39:18;;;;;;;12.70;10.13;;;1.00;99.90;;;;;;5094064;28;20239;-55
2023/03/16 01:41:46;;;;;;;13.37;9.97;;;0.90;99.90;;;;;;5093748;28;20226;-55
2023/03/16 01:44:16;;;;;;;13.53;10.33;;;0.90;99.90;;;;;;5093643;28;20227;-54
2023/03/16 01:46:43;;;;;;;13.43;10.40;;;0.90;99.90;;;;;;5093270;28;20206;-55
2023/03/16 01:49:14;;;;;;;13.50;10.13;;;0.90;99.90;;;;;;5093782;28;20208;-54
2023/03/16 01:51:44;;;;;;;12.60;9.70;;;0.80;99.90;;;;;;5093807;28;20584;-54
2023/03/16 01:54:18;;;;;;;13.87;10.07;;;0.80;99.90;;;;;;5093496;28;20224;-55
2023/03/16 01:56:51;;;;;;;12.70;9.97;;;0.70;99.90;;;;;;5093365;28;20206;-56
2023/03/16 01:59:23;;;;;;;12.40;9.70;;;0.60;99.90;;;;;;5093319;28;20666;-54
2023/03/16 02:01:51;;;;;;;13.53;9.83;;;0.60;99.90;;;;;;5093482;28;20302;-55
2023/03/16 02:04:29;;;;;;;14.10;10.60;;;0.50;99.90;;;;;;5093490;28;20208;-60
2023/03/16 02:06:57;;;;;;;15.73;10.53;;;0.60;99.90;;;;;;5093231;28;20585;-55
2023/03/16 02:09:25;;;;;;;13.27;10.40;;;0.60;99.90;;;;;;5093204;28;20246;-55
2023/03/16 02:11:53;;;;;;;13.50;10.40;;;0.60;99.90;;;;;;5093146;28;20261;-55
2023/03/16 02:14:23;;;;;;;15.83;11.00;;;0.70;99.90;;;;;;5093244;28;20200;-55
2023/03/16 02:16:51;;;;;;;14.10;10.23;;;0.70;99.90;;;;;;5093185;28;20224;-55
2023/03/16 02:19:26;;;;;;;13.57;10.23;;;0.70;99.90;;;;;;5093178;28;20239;-55
2023/03/16 02:22:01;;;;;;;12.80;10.00;;;0.70;99.90;;;;;;5093024;28;20586;-55
2023/03/16 02:24:28;;;;;;;13.83;10.60;;;0.60;99.90;;;;;;5093053;28;20203;-55
2023/03/16 02:26:57;;;;;;;13.17;10.13;;;0.60;99.90;;;;;;5092611;28;20202;-55
2023/03/16 02:29:41;;;;;;;12.17;10.13;;;0.50;99.90;;;;;;5092939;28;20704;-55
2023/03/16 02:32:10;;;;;;;13.87;11.23;;;0.50;99.90;;;;;;5092987;28;20208;-55
2023/03/16 02:34:38;;;;;;;12.53;10.37;;;0.50;99.90;;;;;;5092006;28;20200;-55
2023/03/16 02:37:06;;;;;;;13.97;10.43;;;0.50;99.90;;;;;;5092917;28;20303;-54
2023/03/16 02:39:34;;;;;;;13.23;10.53;;;0.50;99.90;;;;;;5093054;28;20228;-54
2023/03/16 02:42:01;;;;;;;12.93;9.33;;;0.40;99.90;;;;;;5093175;28;20258;-55
2023/03/16 02:44:33;;;;;;;12.80;10.20;;;0.40;99.90;;;;;;5092609;28;20212;-54
2023/03/16 02:47:05;;;;;;;14.73;11.13;;;0.40;99.90;;;;;;5092495;28;20214;-54
2023/03/16 02:49:36;;;;;;;14.67;10.03;;;0.40;99.90;;;;;;5092903;28;20224;-54
2023/03/16 02:52:03;;;;;;;13.07;10.07;;;0.40;99.90;;;;;;5092486;28;20581;-54
2023/03/16 02:54:30;;;;;;;14.53;10.33;;;0.40;99.90;;;;;;5092638;28;20211;-54
2023/03/16 02:56:56;;;;;;;13.63;9.87;;;0.40;99.90;;;;;;5092158;28;20228;-54
2023/03/16 02:59:23;;;;;;;13.70;10.40;;;0.50;99.90;;;;;;5092864;28;20232;-54
2023/03/16 03:01:50;;;;;;;14.53;10.37;;;0.50;99.90;;;;;;5092264;28;20214;-54
2023/03/16 03:04:19;;;;;;;12.53;10.20;;;0.50;99.90;;;;;;5092683;28;20204;-55
2023/03/16 03:06:45;;;;;;;16.37;10.50;;;0.60;99.90;;;;;;5092248;28;20197;-55
2023/03/16 03:09:13;;;;;;;13.90;10.07;;;0.60;99.90;;;;;;5092274;28;20579;-55
2023/03/16 03:11:40;;;;;;;13.30;10.20;;;0.60;99.90;;;;;;5092206;28;20200;-55
2023/03/16 03:14:08;;;;;;;12.50;9.93;;;0.50;99.90;;;;;;5092238;28;20205;-55
2023/03/16 03:16:34;;;;;;;14.73;10.60;;;0.50;99.90;;;;;;5091566;28;20224;-55
2023/03/16 03:19:01;;;;;;;13.73;10.10;;;0.40;99.90;;;;;;5092163;28;20219;-55
2023/03/16 03:21:29;;;;;;;12.40;9.80;;;0.50;99.90;;;;;;5092288;28;20236;-55
2023/03/16 03:23:56;;;;;;;12.70;10.03;;;0.50;99.90;;;;;;5092352;28;20211;-55
2023/03/16 03:26:23;;;;;;;13.67;10.03;;;0.50;99.90;;;;;;5092582;28;20204;-55
2023/03/16 03:28:51;;;;;;;13.20;9.90;;;0.50;99.90;;;;;;5092226;28;20269;-55
2023/03/16 03:31:20;;;;;;;12.93;9.77;;;0.50;99.90;;;;;;5092372;28;20660;-55
2023/03/16 03:33:47;;;;;;;14.10;10.17;;;0.50;99.90;;;;;;5092352;28;20646;-54
2023/03/16 03:36:13;;;;;;;12.10;9.43;;;0.60;99.90;;;;;;5091941;28;20220;-54
2023/03/16 03:38:42;;;;;;;12.93;9.13;;;0.70;99.90;;;;;;5091633;28;20660;-53
2023/03/16 03:41:09;;;;;;;13.40;10.10;;;0.70;99.90;;;;;;5091869;28;20224;-54
2023/03/16 03:43:36;;;;;;;12.83;9.07;;;0.60;99.90;;;;;;5091939;28;20239;-54
2023/03/16 03:46:03;;;;;;;12.03;8.70;;;0.60;99.90;;;;;;5095360;28;20207;-54
2023/03/16 03:48:30;;;;;;;12.43;9.80;;;0.60;99.90;;;;;;5096089;28;20212;-54
2023/03/16 03:50:57;;;;;;;12.27;9.07;;;0.70;99.90;;;;;;5096073;28;20314;-54
2023/03/16 03:53:23;;;;;;;13.47;9.20;;;0.60;99.90;;;;;;5095914;28;20208;-54
2023/03/16 03:55:52;;;;;;;12.83;10.00;;;0.60;99.90;;;;;;5095679;28;20726;-54
2023/03/16 03:58:18;;;;;;;12.20;9.27;;;0.50;99.90;;;;;;5095586;28;20211;-54
2023/03/16 04:00:45;;;;;;;13.10;9.53;;;0.60;99.90;;;;;;5095651;28;20232;-55
2023/03/16 04:03:12;;;;;;;13.50;9.30;;;0.70;99.90;;;;;;5095733;28;20204;-54
2023/03/16 04:05:39;;;;;;;12.73;9.97;;;0.80;99.90;;;;;;5095517;28;20265;-55
2023/03/16 04:08:06;;;;;;;12.93;9.13;;;0.80;99.90;;;;;;5095442;28;20293;-54
2023/03/16 04:10:33;;;;;;;12.00;9.13;;;0.70;99.90;;;;;;5095398;28;20231;-55
2023/03/16 04:13:01;;;;;;;12.97;10.07;;;0.60;99.90;;;;;;5095646;28;20211;-55
2023/03/16 04:15:28;;;;;;;14.53;10.63;;;0.60;99.90;;;;;;5095626;28;20227;-54
2023/03/16 04:17:55;;;;;;;17.10;11.30;;;0.60;99.90;;;;;;5095301;28;20214;-55
2023/03/16 04:20:22;;;;;;;14.80;10.97;;;0.70;99.90;;;;;;5095327;28;20235;-54
2023/03/16 04:22:57;;;;;;;14.00;10.40;;;0.80;99.90;;;;;;5095411;28;20212;-53
2023/03/16 04:25:25;;;;;;;14.97;11.37;;;0.80;99.90;;;;;;5096002;28;20297;-53
2023/03/16 04:27:52;;;;;;;14.77;10.50;;;1.00;99.90;;;;;;5095277;28;20258;-53
2023/03/16 04:30:22;;;;;;;16.20;10.20;;;1.10;99.90;;;;;;5095407;28;20239;-52
2023/03/16 04:32:49;;;;;;;16.20;11.70;;;1.10;99.90;;;;;;5095847;28;20216;-53
2023/03/16 04:35:16;;;;;;;14.47;10.90;;;1.00;99.90;;;;;;5095028;28;20668;-53
2023/03/16 04:37:43;;;;;;;14.40;11.40;;;0.90;99.90;;;;;;5094637;28;20205;-53
2023/03/16 04:40:15;;;;;;;15.90;11.27;;;0.90;99.90;;;;;;5094968;28;20224;-53
2023/03/16 04:42:42;;;;;;;16.13;11.47;;;0.90;99.90;;;;;;5094933;28;20201;-53
2023/03/16 04:45:10;;;;;;;17.53;12.03;;;1.00;99.90;;;;;;5094895;28;20219;-52
2023/03/16 04:47:38;;;;;;;13.80;10.50;;;1.10;99.90;;;;;;5094735;28;20197;-53
2023/03/16 04:50:07;;;;;;;24.13;14.63;;;1.20;99.90;;;;;;5094761;28;20224;-54
2023/03/16 04:52:34;;;;;;;15.43;11.43;;;1.20;99.90;;;;;;5095212;28;20216;-53
2023/03/16 04:55:00;;;;;;;16.40;11.37;;;1.30;99.90;;;;;;5094691;28;20215;-53
2023/03/16 04:57:27;;;;;;;16.33;11.57;;;1.30;99.90;;;;;;5093675;28;20691;-54
2023/03/16 04:59:54;;;;;;;18.20;11.37;;;1.30;99.90;;;;;;5094708;28;20236;-54
2023/03/16 05:02:21;;;;;;;16.07;11.50;;;1.40;99.90;;;;;;5094574;28;20212;-54
2023/03/16 05:04:49;;;;;;;16.20;11.03;;;1.40;99.90;;;;;;5094448;28;20593;-54
2023/03/16 05:07:16;;;;;;;13.83;10.63;;;1.30;99.90;;;;;;5094443;28;20203;-54
2023/03/16 05:09:43;;;;;;;13.17;10.30;;;1.20;99.90;;;;;;5094469;28;20278;-55
2023/03/16 05:12:10;;;;;;;14.87;10.80;;;1.20;99.90;;;;;;5095081;28;20208;-54
2023/03/16 05:14:36;;;;;;;14.50;10.50;;;1.20;99.90;;;;;;5094097;28;20204;-55
2023/03/16 05:17:03;;;;;;;15.17;10.87;;;1.20;99.90;;;;;;5093778;28;20228;-54
2023/03/16 05:19:30;;;;;;;12.77;10.20;;;1.10;99.90;;;;;;5094115;28;20597;-54
2023/03/16 05:21:58;;;;;;;15.00;10.03;;;1.10;99.90;;;;;;5094484;28;20204;-55
2023/03/16 05:24:25;;;;;;;12.37;9.97;;;1.10;99.90;;;;;;5094329;28;20629;-54
2023/03/16 05:26:52;;;;;;;13.23;10.20;;;1.10;99.90;;;;;;5093719;28;20196;-54
2023/03/16 05:29:19;;;;;;;14.37;10.07;;;1.10;99.90;;;;;;5093890;28;20231;-55
2023/03/16 05:31:47;;;;;;;15.57;10.20;;;1.10;99.90;;;;;;5093802;28;20207;-55
2023/03/16 05:34:14;;;;;;;14.57;10.40;;;1.20;99.90;;;;;;5094044;28;20612;-54
2023/03/16 05:36:41;;;;;;;16.60;11.33;;;1.20;99.90;;;;;;5093542;28;20224;-55
2023/03/16 05:39:09;;;;;;;15.03;10.00;;;1.20;99.90;;;;;;5093632;28;20236;-55
2023/03/16 05:41:36;;;;;;;13.83;9.93;;;1.30;99.90;;;;;;5093565;28;20208;-54
2023/03/16 05:44:03;;;;;;;13.67;10.03;;;1.10;99.90;;;;;;5093440;28;20214;-54
2023/03/16 05:46:31;;;;;;;13.83;10.00;;;1.20;99.90;;;;;;5093768;28;20204;-53
2023/03/16 05:48:57;;;;;;;16.53;10.90;;;1.10;99.90;;;;;;5093263;28;20204;-54
2023/03/16 05:51:25;;;;;;;12.13;9.20;;;1.10;99.90;;;;;;5093748;28;20204;-54
2023/03/16 05:53:55;;;;;;;12.77;9.10;;;1.20;99.90;;;;;;5093799;28;20344;-54
2023/03/16 05:56:24;;;;;;;11.67;9.20;;;1.20;99.90;;;;;;5093439;28;20688;-53
2023/03/16 05:58:51;;;;;;;10.60;8.93;;;1.30;99.90;;;;;;5092879;28;20239;-54
2023/03/16 06:01:19;;;;;;;12.23;8.60;;;1.40;99.90;;;;;;5093646;28;20204;-54
2023/03/16 06:03:45;;;;;;;13.77;9.57;;;1.40;99.90;;;;;;5093416;28;20204;-54
2023/03/16 06:06:13;;;;;;;13.77;9.90;;;1.50;99.90;;;;;;5093580;28;20204;-53
2023/03/16 06:08:39;;;;;;;11.30;8.67;;;1.50;99.90;;;;;;5093170;28;20208;-54
2023/03/16 06:11:06;;;;;;;10.80;8.80;;;1.60;99.90;;;;;;5092761;28;20228;-54
2023/03/16 06:13:34;;;;;;;13.10;8.67;;;1.80;99.90;;;;;;5092709;28;20298;-54
2023/03/16 06:16:01;;;;;;;15.53;10.63;;;1.90;99.90;;;;;;5093314;28;20204;-53
2023/03/16 06:18:28;;;;;;;11.17;9.10;;;2.00;99.90;;;;;;5092573;28;20212;-55
2023/03/16 06:20:55;;;;;;;10.80;7.87;;;2.00;99.90;;;;;;5093105;28;20224;-54
2023/03/16 06:23:21;;;;;;;11.20;8.13;;;2.00;99.90;;;;;;5093287;28;20204;-55
2023/03/16 06:25:49;;;;;;;10.10;8.00;;;2.00;99.90;;;;;;5092984;28;20560;-55
2023/03/16 06:28:16;;;;;;;10.00;8.07;;;2.00;99.90;;;;;;5092863;28;20210;-54
2023/03/16 06:30:44;;;;;;;12.93;8.67;;;2.10;99.90;;;;;;5093097;28;20227;-53
2023/03/16 06:33:11;;;;;;;12.00;8.33;;;2.50;99.90;;;;;;5093057;28;20212;-54
2023/03/16 06:35:37;;;;;;;10.53;8.53;;;2.30;99.90;;;;;;5092991;28;20764;-53
2023/03/16 06:38:05;;;;;;;10.98;9.20;;;2.40;99.90;;;;;;5092167;28;20471;-57
2023/03/16 06:40:31;;;;;;;10.43;8.03;;;2.70;99.90;;;;;;5092922;28;20220;-58
2023/03/16 06:42:59;;;;;;;9.40;7.70;;;3.30;99.90;;;;;;5092938;28;20208;-58
2023/03/16 06:45:26;;;;;;;9.43;7.43;;;4.30;99.90;;;;;;5092871;28;20241;-56
2023/03/16 06:47:54;;;;;;;7.90;6.03;;;5.50;99.90;;;;;;5093233;28;20574;-61
2023/03/16 06:50:21;;;;;;;8.07;6.47;;;6.40;99.90;;;;;;5093233;28;20225;-59
2023/03/16 06:52:47;;;;;;;7.17;5.80;;;7.10;99.90;;;;;;5092776;28;20215;-62
2023/03/16 06:55:14;;;;;;;6.77;5.87;;;7.70;99.90;;;;;;5093308;28;20210;-61
2023/03/16 06:57:41;;;;;;;6.47;5.80;;;8.50;99.90;;;;;;5092840;28;20246;-59
2023/03/16 07:00:10;;;;;;;7.33;6.10;;;8.90;99.90;;;;;;5093611;28;20236;-59
2023/03/16 07:02:39;;;;;;;6.73;5.23;;;9.00;99.90;;;;;;5092813;28;20227;-54
2023/03/16 07:05:09;;;;;;;9.13;5.80;;;9.20;99.90;;;;;;5092244;28;20262;-56
2023/03/16 07:07:36;;;;;;;8.93;5.50;;;9.30;99.90;;;;;;5093172;28;20200;-63
2023/03/16 07:10:03;;;;;;;7.87;6.23;;;9.70;99.90;;;;;;5092561;28;20228;-54
2023/03/16 07:12:30;;;;;;;7.23;5.77;;;10.10;99.90;;;;;;5092921;28;20211;-60
2023/03/16 07:14:57;;;;;;;7.97;5.63;;;10.50;99.90;;;;;;5092702;28;20207;-60
2023/03/16 07:17:23;;;;;;;6.60;5.90;;;10.80;99.90;;;;;;5092892;28;20220;-61
2023/03/16 07:19:50;;;;;;;7.53;5.80;;;11.00;99.90;;;;;;5095771;28;20228;-56
2023/03/16 07:22:18;;;;;;;7.13;6.00;;;11.40;99.90;;;;;;5099957;28;20206;-61
2023/03/16 07:24:45;;;;;;;6.87;5.40;;;11.60;99.90;;;;;;5099414;28;20208;-60
2023/03/16 07:27:12;;;;;;;7.97;6.13;;;12.10;99.90;;;;;;5098655;28;20200;-56
2023/03/16 07:29:39;;;;;;;6.50;5.77;;;12.00;99.90;;;;;;5098600;28;20739;-56
2023/03/16 07:32:06;;;;;;;6.73;5.90;;;11.60;99.90;;;;;;5098554;28;20550;-56
2023/03/16 07:34:33;;;;;;;6.40;5.70;;;11.10;99.90;;;;;;5098587;28;20583;-56
2023/03/16 07:36:59;;;;;;;6.80;5.90;;;10.50;99.90;;;;;;5098197;28;20566;-56
2023/03/16 07:39:27;;;;;;;7.10;5.97;;;10.00;99.90;;;;;;5098873;28;20231;-56
2023/03/16 07:41:54;;;;;;;7.97;6.53;;;9.70;99.90;;;;;;5098461;28;20692;-56
2023/03/16 07:44:21;;;;;;;9.43;6.37;;;9.60;99.90;;;;;;5098351;28;20211;-57
2023/03/16 07:46:48;;;;;;;7.17;5.93;;;10.20;99.90;;;;;;5098289;28;20200;-57
2023/03/16 07:49:15;;;;;;;7.27;5.50;;;10.90;99.90;;;;;;5098394;28;20224;-56
2023/03/16 07:51:42;;;;;;;7.87;5.97;;;11.30;99.90;;;;;;5098647;28;20200;-56
2023/03/16 07:54:09;;;;;;;8.43;7.10;;;11.20;99.90;;;;;;5098883;28;20207;-56
2023/03/16 07:56:37;;;;;;;8.47;6.10;;;11.20;99.90;;;;;;5098685;28;20227;-56
2023/03/16 07:59:04;;;;;;;7.50;5.83;;;11.10;99.90;;;;;;5098460;28;20210;-56
2023/03/16 08:01:31;;;;;;;7.97;6.47;;;10.50;99.90;;;;;;5099009;28;20211;-56
2023/03/16 08:03:58;;;;;;;8.83;6.03;;;9.90;99.90;;;;;;5099066;28;20257;-56
2023/03/16 08:06:25;;;;;;;7.53;6.53;;;9.00;99.90;;;;;;5098903;28;20664;-56
2023/03/16 08:08:52;;;;;;;8.73;7.10;;;8.20;99.90;;;;;;5099369;28;20212;-56
2023/03/16 08:11:22;;;;;;;10.83;7.17;;;7.40;99.90;;;;;;5099180;28;20214;-55
2023/03/16 08:13:53;;;;;;;7.57;6.13;;;6.80;99.90;;;;;;5099066;28;20693;-55
2023/03/16 08:16:20;;;;;;;9.13;6.77;;;6.50;99.90;;;;;;5099288;28;20261;-55
2023/03/16 08:18:48;;;;;;;8.30;6.90;;;6.10;99.90;;;;;;5099581;28;20204;-55
2023/03/16 08:21:15;;;;;;;9.20;8.00;;;6.00;99.90;;;;;;5095712;28;20456;-62
2023/03/16 08:23:47;;;;;;;8.43;6.70;;;6.20;99.90;;;;;;5098538;28;20258;-58
2023/03/16 08:26:15;;;;;;;7.97;6.93;;;6.40;99.90;;;;;;5099148;28;20201;-58
2023/03/16 08:28:44;;;;;;;9.87;7.37;;;6.60;99.90;;;;;;5098517;28;20687;-59
2023/03/16 08:31:13;;;;;;;8.47;5.93;;;6.70;99.90;;;;;;5096282;28;20228;-59
2023/03/16 08:33:41;;;;;;;9.47;6.60;;;6.70;99.90;;;;;;5094998;28;20266;-58
2023/03/16 08:36:08;;;;;;;8.07;6.33;;;6.60;99.90;;;;;;5095561;28;20269;-56
2023/03/16 08:38:35;;;;;;;7.90;6.40;;;6.50;99.90;;;;;;5094936;28;20236;-59
2023/03/16 08:41:03;;;;;;;8.63;6.30;;;6.40;99.90;;;;;;5095370;28;20224;-57
2023/03/16 08:43:31;;;;;;;8.83;7.20;;;6.30;99.90;;;;;;5094731;28;20204;-58
2023/03/16 08:45:58;;;;;;;8.37;5.83;;;6.30;99.90;;;;;;5094938;28;20215;-58
2023/03/16 08:48:27;;;;;;;8.97;6.63;;;6.30;99.90;;;;;;5094325;28;20224;-58
2023/03/16 08:50:54;;;;;;;9.70;5.73;;;6.30;99.90;;;;;;5093696;28;20252;-57
2023/03/16 08:53:21;;;;;;;8.47;6.50;;;6.30;99.90;;;;;;5094931;28;20200;-58
2023/03/16 08:55:48;;;;;;;7.40;6.10;;;6.30;99.90;;;;;;5094710;28;20215;-59
2023/03/16 08:58:15;;;;;;;6.33;5.60;;;6.40;99.90;;;;;;5095045;28;20224;-58
2023/03/16 09:00:42;;;;;;;8.53;6.00;;;6.50;99.90;;;;;;5096538;28;20228;-57
2023/03/16 09:03:09;;;;;;;8.00;5.80;;;6.60;99.90;;;;;;5096446;28;20205;-58
2023/03/16 09:05:37;;;;;;;7.07;5.80;;;6.80;99.90;;;;;;5096024;28;20211;-58
2023/03/16 09:08:05;;;;;;;7.10;5.60;;;6.90;99.90;;;;;;5096188;28;20200;-59
2023/03/16 09:10:32;;;;;;;6.23;5.23;;;7.10;99.90;;;;;;5094822;28;20335;-59
2023/03/16 09:12:58;;;;;;;7.63;5.40;;;7.20;99.90;;;;;;5095607;28;20294;-60
2023/03/16 09:15:25;;;;;;;7.07;5.47;;;7.30;99.90;;;;;;5095046;28;20204;-58
2023/03/16 09:17:53;;;;;;;8.07;4.87;;;7.50;99.90;;;;;;5093123;28;20224;-58
2023/03/16 09:20:20;;;;;;;6.87;4.83;;;7.50;99.90;;;;;;5093906;28;20224;-58
2023/03/16 09:22:48;;;;;;;6.23;5.07;;;7.50;99.90;;;;;;5092656;28;20596;-59
2023/03/16 09:25:15;;;;;;;8.77;5.30;;;7.60;99.90;;;;;;5094380;28;20483;-62
2023/03/16 09:27:43;;;;;;;6.23;4.80;;;7.70;99.90;;;;;;5093319;28;20303;-60
2023/03/16 09:30:12;;;;;;;8.13;4.70;;;7.90;99.90;;;;;;5094140;28;20224;-60
2023/03/16 09:32:39;;;;;;;10.03;5.37;;;8.10;99.90;;;;;;5094651;28;20227;-56
2023/03/16 09:35:07;;;;;;;7.20;4.80;;;8.40;99.90;;;;;;5094271;28;20208;-56
2023/03/16 09:37:35;;;;;;;6.57;4.30;;;8.90;99.90;;;;;;5093859;28;20307;-56
2023/03/16 09:40:03;;;;;;;18.40;13.47;;;9.40;99.90;;;;;;5094146;28;20224;-56
2023/03/16 09:42:36;;;;;;;6.70;4.30;;;9.70;99.90;;;;;;5094029;28;20294;-56
2023/03/16 09:45:13;;;;;;;4.73;4.07;;;10.20;99.90;;;;;;5094193;28;20200;-57
2023/03/16 09:47:42;;;;;;;4.33;3.70;;;10.40;99.90;;;;;;5093853;28;20200;-56
2023/03/16 09:50:16;;;;;;;5.63;3.80;;;10.40;99.90;;;;;;5093570;28;20220;-56
2023/03/16 09:52:55;;;;;;;4.47;3.57;;;10.40;99.90;;;;;;5094056;28;20212;-56
2023/03/16 09:55:27;;;;;;;5.13;3.60;;;10.60;99.90;;;;;;5093960;28;20211;-57
2023/03/16 09:57:55;;;;;;;7.33;4.00;;;10.80;99.90;;;;;;5093533;28;20220;-57
2023/03/16 10:00:24;;;;;;;4.83;3.90;;;11.00;99.90;;;;;;5093476;28;20267;-56
2023/03/16 10:03:17;;;;;;;4.90;3.60;;;11.10;99.90;;;;;;5093651;28;20212;-56
2023/03/16 10:05:47;;;;;;;4.80;3.67;;;11.20;99.90;;;;;;5093589;28;20277;-58
2023/03/16 10:08:21;;;;;;;7.07;3.80;;;11.00;99.90;;;;;;5093630;28;20206;-58
2023/03/16 10:11:03;;;;;;;6.70;3.87;;;11.00;99.90;;;;;;5093172;28;20322;-57
2023/03/16 10:13:36;;;;;;;4.53;3.60;;;11.00;99.90;;;;;;5093960;28;20208;-57
2023/03/16 10:16:09;;;;;;;4.80;3.87;;;11.10;99.90;;;;;;5093504;28;20236;-58
2023/03/16 10:18:41;;;;;;;11.00;7.43;;;10.90;99.90;;;;;;5093110;28;20220;-57
2023/03/16 10:21:13;;;;;;;4.43;3.77;;;10.80;99.90;;;;;;5093400;28;20227;-57
2023/03/16 10:23:41;;;;;;;4.90;3.77;;;10.60;99.90;;;;;;5093423;28;20212;-57
2023/03/16 10:26:14;;;;;;;3.90;3.40;;;10.40;99.90;;;;;;5093462;28;20212;-57
2023/03/16 10:28:42;;;;;;;4.53;3.30;;;10.50;99.90;;;;;;5093315;28;20218;-56
2023/03/16 10:31:12;;;;;;;5.13;3.60;;;10.60;99.90;;;;;;5093299;28;20352;-57
2023/03/16 10:33:40;;;;;;;4.27;3.40;;;10.60;99.90;;;;;;5092923;28;20222;-56
2023/03/16 10:36:14;;;;;;;4.60;3.13;;;10.60;99.90;;;;;;5092798;28;20192;-56
2023/03/16 10:38:45;;;;;;;5.67;3.37;;;10.60;99.90;;;;;;5092923;28;20228;-57
2023/03/16 10:41:24;;;;;;;4.70;3.10;;;10.80;99.90;;;;;;5092506;28;20578;-57
2023/03/16 10:43:53;;;;;;;4.30;3.17;;;10.80;99.90;;;;;;5092883;28;20196;-56
2023/03/16 10:46:20;;;;;;;5.23;3.10;;;10.90;99.90;;;;;;5092652;28;20656;-57
2023/03/16 10:48:53;;;;;;;3.77;2.97;;;11.20;99.90;;;;;;5092377;28;20196;-56
2023/03/16 10:51:25;;;;;;;3.93;2.93;;;11.30;99.90;;;;;;5092843;28;20208;-56
2023/03/16 10:53:53;;;;;;;5.80;3.40;;;11.60;99.90;;;;;;5092149;28;20675;-56
2023/03/16 10:56:25;;;;;;;4.00;2.87;;;11.70;99.90;;;;;;5092432;28;20196;-56
2023/03/16 10:58:51;;;;;;;4.47;3.07;;;11.80;99.90;;;;;;5092172;28;20232;-56
2023/03/16 11:01:21;;;;;;;5.83;2.90;;;11.70;99.90;;;;;;5092800;28;20208;-56
2023/03/16 11:03:52;;;;;;;3.93;2.87;;;11.60;99.90;;;;;;5092623;28;20579;-56
2023/03/16 11:06:24;;;;;;;3.33;2.67;;;11.80;99.90;;;;;;5092579;28;20254;-56
2023/03/16 11:08:52;;;;;;;3.60;2.50;;;11.80;99.90;;;;;;5092152;28;20586;-56
2023/03/16 11:11:26;;;;;;;3.47;2.80;;;11.70;99.90;;;;;;5092465;28;20292;-56
2023/03/16 11:13:57;;;;;;;3.77;2.60;;;11.70;99.90;;;;;;5092814;28;20641;-56
2023/03/16 11:16:30;;;;;;;4.57;2.70;;;11.80;99.90;;;;;;5092606;28;20275;-57
2023/03/16 11:18:59;;;;;;;3.47;2.60;;;12.00;99.90;;;;;;5092176;28;20621;-57
2023/03/16 11:21:38;;;;;;;3.37;2.53;;;12.10;99.90;;;;;;5092406;28;20239;-57
2023/03/16 11:24:10;;;;;;;4.20;2.90;;;12.20;99.90;;;;;;5092868;28;20204;-57
2023/03/16 11:26:41;;;;;;;3.77;2.57;;;12.40;99.90;;;;;;5092239;28;20211;-57
2023/03/16 11:29:16;;;;;;;4.23;3.00;;;12.40;99.90;;;;;;5092238;28;20196;-58
2023/03/16 11:31:48;;;;;;;4.43;2.60;;;12.20;99.90;;;;;;5092172;28;20207;-58
2023/03/16 11:34:18;;;;;;;4.47;2.50;;;12.00;99.90;;;;;;5092140;28;20212;-58
2023/03/16 11:36:50;;;;;;;2.97;2.30;;;12.10;99.90;;;;;;5092289;28;20200;-56
2023/03/16 11:39:27;;;;;;;3.03;2.20;;;12.30;99.90;;;;;;5091859;28;20315;-57
2023/03/16 11:42:09;;;;;;;3.67;2.33;;;12.30;99.90;;;;;;5092086;28;20253;-57
2023/03/16 11:44:42;;;;;;;5.27;2.50;;;12.40;99.90;;;;;;5092008;28;20207;-57
2023/03/16 11:47:34;;;;;;;4.53;2.67;;;12.50;99.90;;;;;;5092215;28;20578;-59
2023/03/16 11:50:11;;;;;;;3.07;2.33;;;12.80;99.90;;;;;;5092198;28;20221;-58
2023/03/16 11:52:51;;;;;;;4.53;2.50;;;12.80;99.90;;;;;;5092456;28;20219;-57
2023/03/16 11:55:29;;;;;;;4.83;2.50;;;12.80;99.90;;;;;;5092235;28;20640;-57
2023/03/16 11:58:08;;;;;;;4.13;2.40;;;12.80;99.80;;;;;;5091861;28;20224;-57
2023/03/16 12:00:46;;;;;;;3.90;2.27;;;12.80;99.90;;;;;;5091760;28;20236;-57
2023/03/16 12:03:53;;;;;;;6.20;2.33;;;12.70;99.90;;;;;;5092285;28;20208;-58
2023/03/16 12:06:34;;;;;;;3.17;2.30;;;12.70;99.80;;;;;;5093870;28;20212;-58
2023/03/16 12:09:38;;;;;;;4.80;2.33;;;12.60;99.90;;;;;;5095717;28;20845;-57
2023/03/16 12:12:17;;;;;;;4.50;2.37;;;12.60;99.90;;;;;;5095628;28;20642;-58
2023/03/16 12:14:52;;;;;;;3.70;2.40;;;12.50;99.60;;;;;;5096140;28;20678;-57
2023/03/16 12:17:25;;;;;;;4.67;2.20;;;12.60;99.90;;;;;;5095499;28;20439;-57
2023/03/16 12:19:55;;;;;;;3.00;2.30;;;12.60;99.60;;;;;;5096032;28;20232;-58
2023/03/16 12:22:29;;;;;;;4.10;2.50;;;12.90;99.40;;;;;;5095756;28;20204;-57
2023/03/16 12:24:56;;;;;;;3.13;2.00;;;13.10;99.10;;;;;;5096171;28;20209;-57
2023/03/16 12:27:27;;;;;;;3.37;2.33;;;13.10;98.50;;;;;;5095542;28;20261;-57
2023/03/16 12:30:07;;;;;;;4.37;2.30;;;13.10;98.50;;;;;;5095696;28;20220;-58
2023/03/16 12:32:44;;;;;;;3.30;2.00;;;13.00;99.10;;;;;;5095108;28;20210;-58
2023/03/16 12:35:24;;;;;;;2.60;1.73;;;13.00;97.20;;;;;;5095330;28;20659;-57
2023/03/16 12:38:02;;;;;;;2.47;1.90;;;13.00;97.70;;;;;;5095333;28;20208;-58
2023/03/16 12:40:34;;;;;;;3.70;2.10;;;13.10;97.40;;;;;;5095628;28;20266;-58
2023/03/16 12:43:24;;;;;;;2.63;1.77;;;13.30;96.70;;;;;;5095199;28;20200;-57
2023/03/16 12:46:00;;;;;;;3.27;2.23;;;13.40;97.00;;;;;;5094940;28;20203;-58
2023/03/16 12:48:31;;;;;;;3.70;2.00;;;13.50;96.30;;;;;;5094801;28;20200;-59
2023/03/16 12:51:00;;;;;;;3.13;1.70;;;13.60;96.40;;;;;;5095052;28;20234;-58
2023/03/16 12:53:37;;;;;;;3.33;1.93;;;13.60;94.90;;;;;;5094790;28;20257;-58
2023/03/16 12:56:08;;;;;;;2.43;1.80;;;13.60;94.00;;;;;;5094963;28;20629;-58